createdAt,value
2019-03-08T00:02:18.480Z,101473.68
2019-03-08T00:04:50.540Z,101470.13
2019-03-08T00:07:21.275Z,101466.93
2019-03-08T00:09:51.703Z,101463.95
2019-03-08T00:12:21.937Z,101463.73
2019-03-08T00:14:52.363Z,101473.59
2019-03-08T00:17:24.211Z,101471.05
2019-03-08T00:19:54.739Z,101474.38
2019-03-08T00:22:25.275Z,101463.79
2019-03-08T00:24:55.897Z,101461.89
2019-03-08T00:27:26.023Z,101446.20
2019-03-08T00:29:56.451Z,101439.20
2019-03-08T00:32:28.202Z,101439.12
2019-03-08T00:34:58.522Z,101440.11
2019-03-08T00:37:29.053Z,101432.19
2019-03-08T00:39:59.477Z,101426.95
2019-03-08T00:42:31.167Z,101429.73
2019-03-08T00:45:01.764Z,101421.88
2019-03-08T00:47:32.195Z,101420.15
2019-03-08T00:50:03.567Z,101407.48
2019-03-08T00:52:34.655Z,101393.86
2019-03-08T00:55:06.919Z,101393.94
2019-03-08T00:57:37.272Z,101405.45
2019-03-08T01:00:09.441Z,101414.01
2019-03-08T01:02:41.669Z,101409.72
2019-03-08T01:05:12.137Z,101412.67
2019-03-08T01:07:42.870Z,101405.14
2019-03-08T01:10:23.086Z,101404.18
2019-03-08T01:12:53.346Z,101400.82
2019-03-08T01:15:23.874Z,101405.95
2019-03-08T01:17:59.273Z,101406.12
2019-03-08T01:20:28.310Z,101400.13
2019-03-08T01:22:58.531Z,101405.27
2019-03-08T01:25:28.935Z,101394.28
2019-03-08T01:28:00.307Z,101384.43
2019-03-08T01:30:31.049Z,101393.11
2019-03-08T01:33:01.364Z,101384.53
2019-03-08T01:35:31.992Z,101381.02
2019-03-08T01:38:03.214Z,101383.97
2019-03-08T01:40:33.768Z,101368.34
2019-03-08T01:43:06.320Z,101356.34
2019-03-08T01:45:38.692Z,101352.72
2019-03-08T01:48:11.277Z,101351.48
2019-03-08T01:50:42.032Z,101344.11
2019-03-08T01:53:12.482Z,101333.91
2019-03-08T01:55:42.982Z,101336.78
2019-03-08T01:58:13.407Z,101338.42
2019-03-08T02:00:44.755Z,101343.72
2019-03-08T02:03:17.124Z,101342.84
2019-03-08T02:05:47.555Z,101345.81
2019-03-08T02:08:17.978Z,101332.98
2019-03-08T02:10:50.283Z,101325.05
2019-03-08T02:13:20.571Z,101328.59
2019-03-08T02:15:51.066Z,101319.31
2019-03-08T02:18:21.629Z,101328.16
2019-03-08T02:20:52.400Z,101338.30
2019-03-08T02:23:25.541Z,101342.92
2019-03-08T02:25:55.942Z,101344.72
2019-03-08T02:28:26.609Z,101343.98
2019-03-08T02:30:57.035Z,101351.22
2019-03-08T02:33:27.259Z,101353.94
2019-03-08T02:35:57.479Z,101362.16
2019-03-08T02:38:28.284Z,101356.02
2019-03-08T02:40:58.744Z,101347.30
2019-03-08T02:43:28.966Z,101349.96
2019-03-08T02:45:59.362Z,101348.98
2019-03-08T02:48:30.866Z,101349.55
2019-03-08T02:51:01.894Z,101333.55
2019-03-08T02:53:32.169Z,101330.52
2019-03-08T02:56:02.937Z,101328.40
2019-03-08T02:58:33.159Z,101324.80
2019-03-08T03:01:04.269Z,101330.44
2019-03-08T03:03:34.828Z,101330.78
2019-03-08T03:06:05.355Z,101336.73
2019-03-08T03:08:35.681Z,101342.61
2019-03-08T03:11:06.210Z,101339.14
2019-03-08T03:13:36.735Z,101336.93
2019-03-08T03:16:07.269Z,101326.50
2019-03-08T03:18:37.794Z,101326.06
2019-03-08T03:21:08.425Z,101332.14
2019-03-08T03:23:38.646Z,101319.33
2019-03-08T03:26:10.985Z,101323.05
2019-03-08T03:28:41.238Z,101318.73
2019-03-08T03:31:11.667Z,101327.49
2019-03-08T03:33:42.694Z,101331.98
2019-03-08T03:36:13.440Z,101327.34
2019-03-08T03:38:43.967Z,101335.61
2019-03-08T03:41:16.616Z,101328.11
2019-03-08T03:43:46.867Z,101316.30
2019-03-08T03:46:18.773Z,101308.50
2019-03-08T03:48:49.357Z,101308.98
2019-03-08T03:51:19.965Z,101307.63
2019-03-08T03:53:52.199Z,101307.27
2019-03-08T03:56:22.788Z,101312.94
2019-03-08T03:58:53.219Z,101300.76
2019-03-08T04:01:26.278Z,101286.78
2019-03-08T04:03:58.319Z,101290.39
2019-03-08T04:06:28.899Z,101288.95
2019-03-08T04:08:59.322Z,101294.91
2019-03-08T04:11:29.858Z,101290.56
2019-03-08T04:14:00.274Z,101300.58
2019-03-08T04:16:31.009Z,101299.81
2019-03-08T04:19:01.332Z,101303.79
2019-03-08T04:21:31.859Z,101313.45
2019-03-08T04:24:02.492Z,101294.70
2019-03-08T04:26:33.089Z,101292.09
2019-03-08T04:29:03.754Z,101293.45
2019-03-08T04:31:34.388Z,101294.30
2019-03-08T04:34:06.773Z,101291.69
2019-03-08T04:36:37.387Z,101298.46
2019-03-08T04:39:07.693Z,101292.19
2019-03-08T04:41:38.136Z,101292.09
2019-03-08T04:44:10.640Z,101288.70
2019-03-08T04:46:42.371Z,101293.53
2019-03-08T04:49:12.799Z,101288.34
2019-03-08T04:51:45.318Z,101288.73
2019-03-08T04:54:21.197Z,101289.30
2019-03-08T04:56:54.413Z,101282.56
2019-03-08T04:59:24.811Z,101278.97
2019-03-08T05:01:55.372Z,101271.13
2019-03-08T05:04:26.517Z,101277.19
2019-03-08T05:06:57.144Z,101272.88
2019-03-08T05:09:28.766Z,101267.14
2019-03-08T05:12:03.922Z,101272.05
2019-03-08T05:14:33.614Z,101269.89
2019-03-08T05:17:04.277Z,101264.67
2019-03-08T05:19:34.906Z,101260.73
2019-03-08T05:22:08.097Z,101256.85
2019-03-08T05:24:39.443Z,101258.09
2019-03-08T05:27:09.872Z,101264.16
2019-03-08T05:29:40.505Z,101270.44
2019-03-08T05:32:11.240Z,101273.50
2019-03-08T05:34:41.764Z,101267.81
2019-03-08T05:37:13.771Z,101271.77
2019-03-08T05:39:44.252Z,101271.81
2019-03-08T05:42:14.783Z,101275.70
2019-03-08T05:44:47.637Z,101276.58
2019-03-08T05:47:20.960Z,101285.85
2019-03-08T05:49:52.516Z,101279.23
2019-03-08T05:52:23.118Z,101272.18
2019-03-08T05:54:55.476Z,101288.91
2019-03-08T05:57:25.837Z,101290.65
2019-03-08T05:59:56.266Z,101289.76
2019-03-08T06:02:27.202Z,101283.66
2019-03-08T06:04:57.628Z,101283.61
2019-03-08T06:07:28.058Z,101281.91
2019-03-08T06:09:58.791Z,101286.30
2019-03-08T06:12:29.629Z,101281.91
2019-03-08T06:15:05.740Z,101281.92
2019-03-08T06:17:35.982Z,101281.91
2019-03-08T06:20:12.812Z,101275.80
2019-03-08T06:22:44.130Z,101280.61
2019-03-08T06:25:20.391Z,101291.59
2019-03-08T06:27:55.132Z,101297.23
2019-03-08T06:30:28.926Z,101284.55
2019-03-08T06:33:02.745Z,101283.66
2019-03-08T06:35:35.073Z,101279.75
2019-03-08T06:38:07.685Z,101286.32
2019-03-08T06:40:40.357Z,101283.67
2019-03-08T06:43:11.780Z,101278.00
2019-03-08T06:45:42.949Z,101266.14
2019-03-08T06:48:13.213Z,101252.97
2019-03-08T06:50:43.801Z,101250.78
2019-03-08T06:53:15.047Z,101259.97
2019-03-08T06:55:47.432Z,101270.53
2019-03-08T06:58:19.693Z,101264.36
2019-03-08T07:00:52.089Z,101276.59
2019-03-08T07:03:23.627Z,101259.91
2019-03-08T07:05:54.144Z,101253.64
2019-03-08T07:08:25.045Z,101254.51
2019-03-08T07:10:55.609Z,101246.17
2019-03-08T07:13:28.051Z,101234.31
2019-03-08T07:15:58.512Z,101237.91
2019-03-08T07:18:29.046Z,101236.05
2019-03-08T07:21:03.984Z,101215.64
2019-03-08T07:23:42.594Z,101209.83
2019-03-08T07:26:26.272Z,101213.79
2019-03-08T07:29:18.251Z,101218.42
2019-03-08T07:32:00.559Z,101228.14
2019-03-08T07:34:35.871Z,101219.70
2019-03-08T07:37:20.049Z,101225.36
2019-03-08T07:39:52.477Z,101217.25
2019-03-08T07:42:27.884Z,101233.64
2019-03-08T07:45:03.186Z,101230.05
2019-03-08T07:47:51.964Z,101217.81
2019-03-08T07:50:39.177Z,101218.58
2019-03-08T07:53:14.726Z,101221.83
2019-03-08T07:55:47.096Z,101232.72
2019-03-08T07:58:21.618Z,101228.36
2019-03-08T08:01:10.169Z,101227.16
2019-03-08T08:04:02.409Z,101228.43
2019-03-08T08:06:37.972Z,101224.14
2019-03-08T08:09:20.460Z,101231.52
2019-03-08T08:12:09.640Z,101228.41
2019-03-08T08:14:47.740Z,101229.09
2019-03-08T08:17:20.046Z,101227.63
2019-03-08T08:20:01.295Z,101234.66
2019-03-08T08:22:48.713Z,101229.83
2019-03-08T08:25:39.955Z,101234.16
2019-03-08T08:28:21.538Z,101230.45
2019-03-08T08:31:06.138Z,101229.31
2019-03-08T08:33:38.566Z,101231.62
2019-03-08T08:36:17.573Z,101211.06
2019-03-08T08:38:50.056Z,101200.86
2019-03-08T08:41:22.115Z,101194.67
2019-03-08T08:44:11.175Z,101184.47
2019-03-08T08:47:00.245Z,101184.64
2019-03-08T08:49:35.381Z,101182.89
2019-03-08T08:52:16.726Z,101174.61
2019-03-08T08:54:51.891Z,101169.56
2019-03-08T08:57:37.071Z,101165.36
2019-03-08T09:00:22.030Z,101161.70
2019-03-08T09:03:11.060Z,101166.82
2019-03-08T09:05:46.024Z,101161.81
2019-03-08T09:08:23.801Z,101155.52
2019-03-08T09:11:05.210Z,101155.86
2019-03-08T09:13:42.340Z,101149.13
2019-03-08T09:16:18.216Z,101152.25
2019-03-08T09:18:56.554Z,101142.58
2019-03-08T09:21:37.635Z,101136.17
2019-03-08T09:24:16.351Z,101137.44
2019-03-08T09:26:54.879Z,101140.66
2019-03-08T09:29:28.131Z,101142.80
2019-03-08T09:32:03.601Z,101135.22
2019-03-08T09:34:35.584Z,101130.73
2019-03-08T09:37:24.321Z,101134.39
2019-03-08T09:39:59.260Z,101129.42
2019-03-08T09:42:32.367Z,101119.98
2019-03-08T09:45:20.586Z,101120.69
2019-03-08T09:48:01.868Z,101106.52
2019-03-08T09:50:34.135Z,101113.30
2019-03-08T09:53:25.349Z,101105.84
2019-03-08T09:56:11.192Z,101109.09
2019-03-08T09:59:03.228Z,101114.34
2019-03-08T10:01:52.965Z,101121.22
2019-03-08T10:04:29.091Z,101117.20
2019-03-08T10:07:09.680Z,101113.59
2019-03-08T10:09:48.995Z,101121.13
2019-03-08T10:12:21.689Z,101109.00
2019-03-08T10:14:58.332Z,101110.73
2019-03-08T10:17:42.302Z,101111.57
2019-03-08T10:20:17.976Z,101113.25
2019-03-08T10:22:50.117Z,101106.11
2019-03-08T10:25:35.946Z,101101.23
2019-03-08T10:28:08.259Z,101104.72
2019-03-08T10:30:41.806Z,101102.80
2019-03-08T10:33:17.016Z,101096.19
2019-03-08T10:35:49.281Z,101104.25
2019-03-08T10:38:24.306Z,101079.47
2019-03-08T10:40:59.666Z,101086.66
2019-03-08T10:43:32.130Z,101084.51
2019-03-08T10:46:15.895Z,101074.55
2019-03-08T10:48:48.201Z,101072.98
2019-03-08T10:51:21.648Z,101067.90
2019-03-08T10:54:00.535Z,101069.39
2019-03-08T10:56:31.116Z,101060.53
2019-03-08T10:59:15.751Z,101057.07
2019-03-08T11:01:57.402Z,101069.26
2019-03-08T11:04:32.678Z,101054.84
2019-03-08T11:07:17.456Z,101053.48
2019-03-08T11:09:56.572Z,101059.70
2019-03-08T11:12:32.016Z,101056.38
2019-03-08T11:15:24.203Z,101041.01
2019-03-08T11:17:56.019Z,101033.17
2019-03-08T11:20:29.819Z,101036.72
2019-03-08T11:23:08.748Z,101035.00
2019-03-08T11:25:58.942Z,101038.69
2019-03-08T11:28:31.512Z,101031.73
2019-03-08T11:31:07.057Z,101035.17
2019-03-08T11:33:51.320Z,101043.64
2019-03-08T11:36:23.784Z,101040.97
2019-03-08T11:38:57.188Z,101032.31
2019-03-08T11:41:35.483Z,101027.21
2019-03-08T11:44:24.367Z,101033.64
2019-03-08T11:46:56.608Z,101034.03
2019-03-08T11:49:36.528Z,101028.30
2019-03-08T11:52:15.278Z,101017.73
2019-03-08T11:54:48.676Z,101014.61
2019-03-08T11:57:20.844Z,101028.62
2019-03-08T11:59:56.101Z,101030.55
2019-03-08T12:02:37.573Z,101015.59
2019-03-08T12:05:10.758Z,101020.45
2019-03-08T12:07:43.856Z,101023.06
2019-03-08T12:10:32.747Z,101008.38
2019-03-08T12:13:08.253Z,101003.37
2019-03-08T12:15:55.883Z,101006.86
2019-03-08T12:18:28.148Z,100989.16
2019-03-08T12:21:11.486Z,100997.66
2019-03-08T12:23:52.451Z,101003.48
2019-03-08T12:26:36.707Z,101009.09
2019-03-08T12:29:11.940Z,101003.66
2019-03-08T12:31:47.282Z,100995.39
2019-03-08T12:34:28.461Z,100989.50
2019-03-08T12:37:03.595Z,100991.38
2019-03-08T12:39:38.324Z,100996.36
2019-03-08T12:42:13.151Z,100996.36
2019-03-08T12:44:58.433Z,100983.25
2019-03-08T12:47:42.683Z,100977.36
2019-03-08T12:50:27.234Z,100983.30
2019-03-08T12:52:59.830Z,100987.88
2019-03-08T12:55:34.646Z,100982.55
2019-03-08T12:58:06.707Z,100982.83
2019-03-08T13:00:39.169Z,100965.28
2019-03-08T13:03:14.215Z,100971.59
2019-03-08T13:05:46.277Z,100971.17
2019-03-08T13:08:22.159Z,100974.81
2019-03-08T13:10:52.840Z,100969.67
2019-03-08T13:13:23.268Z,100958.58
2019-03-08T13:15:53.826Z,100951.36
2019-03-08T13:18:24.562Z,100958.80
2019-03-08T13:20:55.286Z,100955.42
2019-03-08T13:23:25.581Z,100956.12
2019-03-08T13:25:56.344Z,100950.09
2019-03-08T13:28:26.770Z,100955.05
2019-03-08T13:30:57.195Z,100958.69
2019-03-08T13:33:27.930Z,100952.54
2019-03-08T13:35:58.457Z,100955.06
2019-03-08T13:38:28.989Z,100961.09
2019-03-08T13:41:00.452Z,100957.47
2019-03-08T13:43:31.087Z,100953.88
2019-03-08T13:46:01.711Z,100950.13
2019-03-08T13:48:33.255Z,100943.84
2019-03-08T13:51:04.167Z,100946.19
2019-03-08T13:53:34.614Z,100956.27
2019-03-08T13:56:05.355Z,100947.14
2019-03-08T13:58:36.184Z,100940.19
2019-03-08T14:01:07.543Z,100942.80
2019-03-08T14:03:38.165Z,100932.48
2019-03-08T14:06:08.894Z,100936.11
2019-03-08T14:08:39.424Z,100920.48
2019-03-08T14:11:11.264Z,100928.43
2019-03-08T14:13:42.025Z,100928.71
2019-03-08T14:16:12.751Z,100912.32
2019-03-08T14:18:43.488Z,100907.93
2019-03-08T14:21:13.784Z,100909.92
2019-03-08T14:23:44.235Z,100903.45
2019-03-08T14:26:16.830Z,100905.66
2019-03-08T14:28:47.130Z,100898.59
2019-03-08T14:31:22.039Z,100890.05
2019-03-08T14:33:52.502Z,100887.75
2019-03-08T14:36:23.735Z,100894.16
2019-03-08T14:38:54.474Z,100884.83
2019-03-08T14:41:31.686Z,100867.62
2019-03-08T14:44:12.839Z,100877.41
2019-03-08T14:46:52.989Z,100856.66
2019-03-08T14:49:24.352Z,100840.77
2019-03-08T14:51:55.547Z,100851.72
2019-03-08T14:54:27.350Z,100858.25
2019-03-08T14:56:57.867Z,100861.22
2019-03-08T14:59:28.178Z,100863.80
2019-03-08T15:02:00.057Z,100857.98
2019-03-08T15:04:33.146Z,100869.16
2019-03-08T15:07:04.623Z,100866.28
2019-03-08T15:09:35.771Z,100874.28
2019-03-08T15:12:06.369Z,100878.77
2019-03-08T15:14:36.997Z,100881.56
2019-03-08T15:17:09.301Z,100875.65
2019-03-08T15:19:40.289Z,100881.41
2019-03-08T15:22:12.057Z,100894.66
2019-03-08T15:24:42.690Z,100891.47
2019-03-08T15:27:13.322Z,100897.75
2019-03-08T15:29:54.248Z,100900.94
2019-03-08T15:32:19.296Z,100893.75
2019-03-08T15:34:50.746Z,100900.38
2019-03-08T15:37:21.382Z,100902.68
2019-03-08T15:39:52.319Z,100896.45
2019-03-08T15:42:22.821Z,100896.64
2019-03-08T15:44:53.476Z,100896.18
2019-03-08T15:47:24.123Z,100900.41
2019-03-08T15:49:54.532Z,100898.98
2019-03-08T15:52:25.543Z,100901.94
2019-03-08T15:54:59.751Z,100911.88
2019-03-08T15:57:30.313Z,100911.97
2019-03-08T16:00:00.737Z,100915.20
2019-03-08T16:02:33.505Z,100918.39
2019-03-08T16:05:04.433Z,100915.83
2019-03-08T16:07:35.687Z,100919.63
2019-03-08T16:10:08.078Z,100929.28
2019-03-08T16:12:39.122Z,100927.12
2019-03-08T16:15:10.455Z,100924.47
2019-03-08T16:17:42.529Z,100934.55
2019-03-08T16:20:14.769Z,100941.78
2019-03-08T16:22:45.326Z,100937.78
2019-03-08T16:25:16.705Z,100944.67
2019-03-08T16:27:47.102Z,100925.61
2019-03-08T16:30:24.388Z,100936.70
2019-03-08T16:33:04.630Z,100933.89
2019-03-08T16:35:51.943Z,100934.20
2019-03-08T16:38:26.800Z,100933.09
2019-03-08T16:41:02.059Z,100927.00
2019-03-08T16:43:37.067Z,100943.09
2019-03-08T16:46:20.678Z,100941.37
2019-03-08T16:48:53.104Z,100953.31
2019-03-08T16:51:30.297Z,100951.07
2019-03-08T16:54:07.730Z,100953.52
2019-03-08T16:56:43.104Z,100946.77
2019-03-08T16:59:21.209Z,100954.51
2019-03-08T17:02:08.701Z,100939.61
2019-03-08T17:04:56.093Z,100948.36
2019-03-08T17:07:31.239Z,100942.98
2019-03-08T17:10:05.269Z,100942.83
2019-03-08T17:12:37.671Z,100931.00
2019-03-08T17:15:13.113Z,100938.98
2019-03-08T17:17:57.773Z,100938.66
2019-03-08T17:20:33.832Z,100931.58
2019-03-08T17:23:05.997Z,100930.93
2019-03-08T17:25:38.370Z,100925.48
2019-03-08T17:28:13.300Z,100931.39
2019-03-08T17:30:48.436Z,100940.59
2019-03-08T17:33:23.279Z,100936.60
2019-03-08T17:36:07.623Z,100931.36
2019-03-08T17:38:44.027Z,100935.66
2019-03-08T17:41:32.636Z,100941.02
2019-03-08T17:44:17.196Z,100938.55
2019-03-08T17:46:55.098Z,100935.19
2019-03-08T17:49:30.028Z,100929.91
2019-03-08T17:52:11.616Z,100939.11
2019-03-08T17:54:43.989Z,100928.08
2019-03-08T17:57:21.993Z,100926.62
2019-03-08T17:59:53.954Z,100933.41
2019-03-08T18:02:26.428Z,100930.75
2019-03-08T18:05:02.692Z,100933.20
2019-03-08T18:07:41.410Z,100934.59
2019-03-08T18:10:23.807Z,100935.64
2019-03-08T18:13:10.179Z,100942.14
2019-03-08T18:15:57.073Z,100937.38
2019-03-08T18:18:32.145Z,100947.89
2019-03-08T18:21:04.332Z,100962.00
2019-03-08T18:23:53.280Z,100960.34
2019-03-08T18:26:44.118Z,100964.01
2019-03-08T18:29:16.162Z,100967.20
2019-03-08T18:31:53.725Z,100953.40
2019-03-08T18:34:30.941Z,100961.84
2019-03-08T18:37:08.957Z,100955.78
2019-03-08T18:39:58.219Z,100963.33
2019-03-08T18:42:32.939Z,100953.73
2019-03-08T18:45:07.470Z,100953.97
2019-03-08T18:47:42.906Z,100958.39
2019-03-08T18:50:26.250Z,100955.89
2019-03-08T18:53:14.718Z,100958.13
2019-03-08T18:56:05.385Z,100956.73
2019-03-08T18:58:46.664Z,100945.84
2019-03-08T19:01:19.248Z,100948.77
2019-03-08T19:04:00.417Z,100952.75
2019-03-08T19:06:39.424Z,100955.63
2019-03-08T19:09:11.408Z,100959.11
2019-03-08T19:12:00.178Z,100962.59
2019-03-08T19:14:34.281Z,100973.94
2019-03-08T19:17:06.406Z,100970.64
2019-03-08T19:19:51.093Z,100967.59
2019-03-08T19:22:26.697Z,100974.03
2019-03-08T19:24:59.040Z,100971.59
2019-03-08T19:27:34.667Z,100973.26
2019-03-08T19:30:11.602Z,100985.50
2019-03-08T19:32:53.134Z,100989.77
2019-03-08T19:35:28.596Z,100986.55
2019-03-08T19:38:00.948Z,100997.23
2019-03-08T19:40:35.154Z,100996.13
2019-03-08T19:43:24.540Z,101001.23
2019-03-08T19:46:32.835Z,101001.86
2019-03-08T19:49:09.426Z,101000.58
2019-03-08T19:51:54.395Z,100997.35
2019-03-08T19:54:28.918Z,100997.45
2019-03-08T19:57:07.769Z,101000.19
2019-03-08T19:59:49.220Z,100997.36
2019-03-08T20:02:23.724Z,100997.02
2019-03-08T20:05:07.487Z,100982.68
2019-03-08T20:07:55.116Z,100985.02
2019-03-08T20:10:33.393Z,100982.36
2019-03-08T20:13:12.146Z,100970.36
2019-03-08T20:15:59.779Z,100973.72
2019-03-08T20:18:49.723Z,100974.36
2019-03-08T20:21:26.535Z,100963.28
2019-03-08T20:24:08.737Z,100966.41
2019-03-08T20:27:05.929Z,100954.27
2019-03-08T20:29:45.920Z,100954.92
2019-03-08T20:32:35.818Z,100952.41
2019-03-08T20:35:22.623Z,100951.08
2019-03-08T20:38:11.222Z,100963.43
2019-03-08T20:40:43.548Z,100961.67
2019-03-08T20:43:24.827Z,100957.27
2019-03-08T20:46:01.390Z,100952.77
2019-03-08T20:48:37.062Z,100952.77
2019-03-08T20:51:11.477Z,100955.63
2019-03-08T20:53:44.113Z,100956.66
2019-03-08T20:56:23.059Z,100960.89
2019-03-08T20:58:53.911Z,100960.09
2019-03-08T21:01:30.848Z,100970.11
2019-03-08T21:04:04.312Z,100963.08
2019-03-08T21:06:37.062Z,100964.09
2019-03-08T21:09:10.152Z,100959.08
2019-03-08T21:11:42.626Z,100959.78
2019-03-08T21:14:13.534Z,100957.49
2019-03-08T21:16:46.828Z,100951.48
2019-03-08T21:19:19.475Z,100950.77
2019-03-08T21:21:50.165Z,100942.66
2019-03-08T21:24:20.493Z,100950.93
2019-03-08T21:26:51.122Z,100954.64
2019-03-08T21:29:21.651Z,100961.79
2019-03-08T21:31:53.200Z,100966.89
2019-03-08T21:34:24.889Z,100956.50
2019-03-08T21:36:55.489Z,100954.81
2019-03-08T21:39:25.774Z,100951.80
2019-03-08T21:41:56.210Z,100948.86
2019-03-08T21:44:27.052Z,100954.84
2019-03-08T21:46:57.513Z,100937.68
2019-03-08T21:49:27.923Z,100931.32
2019-03-08T21:51:59.067Z,100935.39
2019-03-08T21:54:32.669Z,100936.69
2019-03-08T21:57:03.505Z,100911.57
2019-03-08T21:59:34.138Z,100928.36
2019-03-08T22:02:04.974Z,100923.28
2019-03-08T22:04:38.274Z,100901.00
2019-03-08T22:07:09.611Z,100902.69
2019-03-08T22:09:44.750Z,100896.57
2019-03-08T22:12:15.382Z,100899.09
2019-03-08T22:14:46.010Z,100906.63
2019-03-08T22:17:16.643Z,100904.39
2019-03-08T22:19:47.273Z,100896.00
2019-03-08T22:22:17.906Z,100913.75
2019-03-08T22:24:48.330Z,100918.23
2019-03-08T22:27:18.963Z,100912.28
2019-03-08T22:29:49.284Z,100924.42
2019-03-08T22:32:19.713Z,100928.50
2019-03-08T22:34:50.144Z,100939.03
2019-03-08T22:37:20.639Z,100919.36
2019-03-08T22:39:51.363Z,100924.58
2019-03-08T22:42:22.030Z,100931.47
2019-03-08T22:44:52.557Z,100918.31
2019-03-08T22:47:25.653Z,100916.02
2019-03-08T22:49:56.397Z,100925.53
2019-03-08T22:52:28.555Z,100909.89
2019-03-08T22:54:59.176Z,100921.59
2019-03-08T22:57:30.012Z,100919.87
2019-03-08T23:00:01.679Z,100919.28
2019-03-08T23:02:34.142Z,100916.81
2019-03-08T23:05:05.728Z,100920.52
2019-03-08T23:07:47.977Z,100903.52
2019-03-08T23:10:22.418Z,100902.02
2019-03-08T23:12:52.949Z,100907.84
2019-03-08T23:15:23.680Z,100908.06
2019-03-08T23:17:54.214Z,100896.95
2019-03-08T23:20:31.295Z,100906.69
2019-03-08T23:23:03.462Z,100913.09
2019-03-08T23:25:34.050Z,100909.30
2019-03-08T23:28:12.401Z,100909.77
2019-03-08T23:30:42.622Z,100919.06
2019-03-08T23:33:13.046Z,100916.12
2019-03-08T23:35:43.782Z,100917.28
2019-03-08T23:38:14.415Z,100899.98
2019-03-08T23:40:52.519Z,100901.56
2019-03-08T23:43:24.601Z,100889.25
2019-03-08T23:45:58.418Z,100887.69
2019-03-08T23:48:28.918Z,100892.50
2019-03-08T23:50:59.439Z,100888.77
2019-03-08T23:53:30.486Z,100876.12
2019-03-08T23:56:01.993Z,100878.59
2019-03-08T23:58:32.543Z,100874.00
